Time;durP1;ratioP1;P1;durP2;ratioP2;P2;SDS_P1;SDS_P2;PMS_P1;PMS_P2;Temp;Humidity;BMP_temperature;BMP_pressure;BME280_temperature;BME280_humidity;BME280_pressure;Samples;Min_cycle;Max_cycle;Signal;HPM_P1;HPM_P2
2021/09/21 00:02:10;;;;;;;;;;;;;;;16.50;74.74;99643.00;5032461;28;798;-57
2021/09/21 00:04:37;;;;;;;;;;;;;;;16.36;75.13;99635.09;5032659;28;815;-57
2021/09/21 00:07:04;;;;;;;;;;;;;;;16.27;75.99;99646.91;5032352;28;844;-57
2021/09/21 00:09:30;;;;;;;;;;;;;;;16.15;77.03;99667.97;5032220;28;945;-57
2021/09/21 00:11:57;;;;;;;;;;;;;;;16.09;77.45;99667.75;5032396;28;831;-57
2021/09/21 00:14:24;;;;;;;;;;;;;;;16.00;78.20;99681.56;5032182;28;1923;-57
2021/09/21 00:16:51;;;;;;;;;;;;;;;15.88;77.68;99669.16;5032620;28;902;-57
2021/09/21 00:19:18;;;;;;;;;;;;;;;15.81;76.81;99674.94;5032123;28;910;-57
2021/09/21 00:21:45;;;;;;;;;;;;;;;15.79;76.16;99668.22;5032049;28;888;-57
2021/09/21 00:24:12;;;;;;;;;;;;;;;15.78;76.33;99677.81;5014470;28;905;-57
2021/09/21 00:39:03;;;;;;;;;;;;;;;15.39;78.00;99683.22;4970819;28;1410;-57
2021/09/21 00:41:31;;;;;;;;;;;;;;;15.36;78.43;99695.22;4971220;28;819;-57
2021/09/21 00:43:58;;;;;;;;;;;;;;;15.33;78.58;99693.31;4971164;28;989;-57
2021/09/21 00:46:25;;;;;;;;;;;;;;;15.34;77.70;99691.31;4971223;28;776;-57
2021/09/21 00:48:51;;;;;;;;;;;;;;;15.32;78.31;99691.75;4971072;28;997;-57
2021/09/21 00:51:20;;;;;;;;;;;;;;;15.31;78.18;99690.19;4970287;28;1272;-56
2021/09/21 00:53:47;;;;;;;;;;;;;;;15.22;77.98;99692.81;4970946;28;1902;-57
2021/09/21 00:56:14;;;;;;;;;;;;;;;15.15;78.15;99665.94;4970817;28;1296;-57
2021/09/21 00:58:41;;;;;;;;;;;;;;;15.21;78.03;99680.09;4971012;28;839;-56
2021/09/21 01:01:07;;;;;;;;;;;;;;;15.17;78.01;99669.06;4970935;28;988;-57
2021/09/21 01:03:34;;;;;;;;;;;;;;;15.19;76.89;99666.63;4971017;28;808;-57
2021/09/21 01:06:02;;;;;;;;;;;;;;;15.14;76.83;99681.06;4970969;28;1011;-57
2021/09/21 01:08:29;;;;;;;;;;;;;;;15.08;77.73;99680.84;4971106;28;1049;-56
2021/09/21 01:10:57;;;;;;;;;;;;;;;15.05;77.37;99689.25;4970646;28;966;-57
2021/09/21 01:13:22;;;;;;;;;;;;;;;15.01;77.66;99697.69;4970610;28;1972;-57
2021/09/21 01:15:49;;;;;;;;;;;;;;;14.96;78.09;99692.66;5019989;28;910;-57
2021/09/21 01:18:16;;;;;;;;;;;;;;;14.87;79.67;99682.16;5032076;28;840;-57
2021/09/21 01:20:43;;;;;;;;;;;;;;;14.89;78.13;99687.25;5031547;28;870;-57
2021/09/21 01:23:09;;;;;;;;;;;;;;;15.06;77.41;99688.84;5032201;28;826;-57
2021/09/21 01:25:36;;;;;;;;;;;;;;;15.05;78.42;99687.25;5032142;28;783;-57
2021/09/21 01:28:02;;;;;;;;;;;;;;;15.00;77.61;99693.34;5031928;28;810;-57
2021/09/21 01:30:29;;;;;;;;;;;;;;;14.98;77.32;99686.63;5031248;28;847;-56
2021/09/21 01:32:57;;;;;;;;;;;;;;;15.03;77.19;99714.75;5031880;28;760;-57
2021/09/21 01:35:24;;;;;;;;;;;;;;;15.21;75.45;99699.59;5031085;28;1889;-57
2021/09/21 01:37:53;;;;;;;;;;;;;;;15.27;75.81;99693.06;5031477;28;1421;-57
2021/09/21 01:40:20;;;;;;;;;;;;;;;15.19;75.10;99705.63;5013668;28;1189;-57
2021/09/21 01:42:49;;;;;;;;;;;;;;;15.10;76.29;99711.78;5031301;28;819;-56
2021/09/21 01:45:17;;;;;;;;;;;;;;;14.99;75.38;99714.03;5031231;28;811;-57
2021/09/21 01:47:48;;;;;;;;;;;;;;;15.04;74.47;99721.09;5031152;28;851;-58
2021/09/21 01:58:17;;;;;;;;;;;;;;;15.04;75.81;99754.47;5030965;28;1914;-56
2021/09/21 01:59:07;;;;;;;;;;;;;;;14.97;76.60;99716.47;5030859;28;805;-57
2021/09/21 02:01:02;;;;;;;;;;;;;;;14.93;76.30;99746.38;5013453;28;1510;-56
2021/09/21 02:03:28;;;;;;;;;;;;;;;14.78;76.69;99753.50;5034141;28;934;-57
2021/09/21 02:05:55;;;;;;;;;;;;;;;14.66;76.14;99755.75;5034708;28;859;-57
2021/09/21 02:08:22;;;;;;;;;;;;;;;14.59;76.54;99750.34;5034547;28;909;-57
2021/09/21 02:10:49;;;;;;;;;;;;;;;14.47;76.63;99759.34;5034552;28;946;-57
2021/09/21 02:13:16;;;;;;;;;;;;;;;14.41;76.15;99769.38;5034543;28;1947;-56
2021/09/21 02:15:42;;;;;;;;;;;;;;;14.44;74.88;99760.94;5034412;28;1036;-56
2021/09/21 02:18:09;;;;;;;;;;;;;;;14.40;74.94;99776.94;5034595;28;811;-57
2021/09/21 02:20:35;;;;;;;;;;;;;;;14.32;74.92;99777.50;5034511;28;823;-56
2021/09/21 02:23:02;;;;;;;;;;;;;;;14.24;74.67;99788.78;5034515;28;803;-57
2021/09/21 02:25:29;;;;;;;;;;;;;;;14.20;74.27;99781.72;5034461;28;827;-57
2021/09/21 02:27:56;;;;;;;;;;;;;;;14.16;74.18;99784.56;5034421;28;826;-57
2021/09/21 02:30:23;;;;;;;;;;;;;;;14.13;74.54;99779.09;5034429;28;811;-57
2021/09/21 02:32:50;;;;;;;;;;;;;;;14.11;74.14;99798.97;5034189;28;942;-57
2021/09/21 02:35:17;;;;;;;;;;;;;;;14.07;74.32;99803.81;5034491;28;1953;-56
2021/09/21 02:37:44;;;;;;;;;;;;;;;14.01;74.57;99803.50;5033936;28;1067;-57
2021/09/21 02:40:12;;;;;;;;;;;;;;;13.94;75.02;99809.22;5034210;28;858;-56
2021/09/21 02:42:40;;;;;;;;;;;;;;;13.87;74.86;99818.47;5034109;28;835;-57
2021/09/21 02:45:08;;;;;;;;;;;;;;;13.80;75.30;99813.03;5033840;28;938;-56
2021/09/21 02:47:35;;;;;;;;;;;;;;;13.68;75.99;99822.00;5033940;28;881;-57
2021/09/21 02:50:03;;;;;;;;;;;;;;;13.54;77.04;99827.78;5033912;28;835;-57
2021/09/21 02:52:30;;;;;;;;;;;;;;;13.49;76.44;99831.81;5033892;28;819;-57
2021/09/21 02:54:57;;;;;;;;;;;;;;;13.48;75.11;99836.59;5033579;28;1918;-57
2021/09/21 02:57:22;;;;;;;;;;;;;;;13.53;75.10;99840.88;5033782;28;898;-56
2021/09/21 02:59:49;;;;;;;;;;;;;;;13.49;74.88;99842.94;5015891;28;861;-56
2021/09/21 03:02:17;;;;;;;;;;;;;;;13.46;76.49;99861.22;5033608;28;938;-56
2021/09/21 03:04:54;;;;;;;;;;;;;;;13.35;77.24;99862.59;5015870;28;945;-56
2021/09/21 03:07:34;;;;;;;;;;;;;;;13.35;75.79;99865.34;5033545;28;851;-57
2021/09/21 03:18:04;;;;;;;;;;;;;;;13.17;76.47;99877.47;5033651;28;673;-57
2021/09/21 03:20:32;;;;;;;;;;;;;;;13.23;77.00;99900.78;5033252;28;815;-56
2021/09/21 03:23:00;;;;;;;;;;;;;;;13.07;78.24;99890.28;5033332;28;831;-56
2021/09/21 03:25:27;;;;;;;;;;;;;;;13.04;75.30;99905.00;5033089;28;799;-56
2021/09/21 03:27:53;;;;;;;;;;;;;;;13.04;76.89;99904.22;5033129;28;862;-56
2021/09/21 03:30:20;;;;;;;;;;;;;;;12.93;78.05;99907.16;5033025;28;927;-56
2021/09/21 03:32:47;;;;;;;;;;;;;;;12.88;78.00;99907.59;5033245;28;1066;-56
2021/09/21 03:35:14;;;;;;;;;;;;;;;12.81;78.39;99921.56;5032936;28;1914;-56
2021/09/21 03:37:42;;;;;;;;;;;;;;;12.62;80.06;99918.19;5032658;28;1270;-56
2021/09/21 03:40:09;;;;;;;;;;;;;;;12.52;79.73;99919.09;5032971;28;823;-56
2021/09/21 03:42:37;;;;;;;;;;;;;;;12.49;79.96;99931.03;5015126;28;1576;-56
2021/09/21 03:45:04;;;;;;;;;;;;;;;12.57;75.55;99921.44;5033003;28;854;-56
2021/09/21 03:47:32;;;;;;;;;;;;;;;12.66;74.67;99918.16;5032718;28;807;-56
2021/09/21 03:49:59;;;;;;;;;;;;;;;12.70;72.40;99930.00;5032787;28;815;-57
2021/09/21 03:52:25;;;;;;;;;;;;;;;12.71;72.12;99937.13;5032664;28;802;-57
2021/09/21 03:54:52;;;;;;;;;;;;;;;12.69;71.94;99930.41;5032400;28;1942;-57
2021/09/21 04:00:22;;;;;;;;;;;;;;;12.62;71.39;99957.03;5032924;28;661;-57
2021/09/21 04:02:49;;;;;;;;;;;;;;;12.65;70.97;99963.72;5032698;28;803;-57
2021/09/21 04:05:16;;;;;;;;;;;;;;;12.68;71.52;99979.56;5032463;28;870;-56
2021/09/21 04:07:42;;;;;;;;;;;;;;;12.65;72.79;99983.94;5032666;28;835;-56
2021/09/21 04:10:09;;;;;;;;;;;;;;;12.61;71.56;99985.97;5032386;28;869;-57
2021/09/21 04:12:35;;;;;;;;;;;;;;;12.77;71.03;99988.16;5032384;28;858;-56
2021/09/21 04:15:04;;;;;;;;;;;;;;;12.84;71.17;99981.75;5032199;28;1898;-56
2021/09/21 04:17:30;;;;;;;;;;;;;;;12.82;70.92;99984.16;5032670;28;930;-57
2021/09/21 04:19:57;;;;;;;;;;;;;;;12.77;71.18;99963.19;5032428;28;885;-57
2021/09/21 04:22:24;;;;;;;;;;;;;;;12.73;70.87;99975.53;5031975;28;911;-57
2021/09/21 04:24:51;;;;;;;;;;;;;;;12.74;70.73;99993.72;5031966;28;867;-57
2021/09/21 04:27:18;;;;;;;;;;;;;;;12.85;70.45;99997.19;5031966;28;1203;-57
2021/09/21 04:29:44;;;;;;;;;;;;;;;12.90;70.77;100002.28;5031960;28;911;-57
2021/09/21 04:32:13;;;;;;;;;;;;;;;12.96;70.63;100011.72;5031968;28;871;-57
2021/09/21 04:34:39;;;;;;;;;;;;;;;12.98;70.46;99994.69;5031881;28;1894;-57
2021/09/21 04:37:06;;;;;;;;;;;;;;;13.02;70.46;99998.19;5031833;28;946;-57
2021/09/21 04:39:33;;;;;;;;;;;;;;;13.03;70.16;99999.75;5031626;28;1360;-56
2021/09/21 04:41:59;;;;;;;;;;;;;;;13.04;70.33;99999.34;5032000;28;886;-57
2021/09/21 04:44:25;;;;;;;;;;;;;;;13.06;70.31;100008.06;5031958;28;799;-57
2021/09/21 04:49:56;;;;;;;;;;;;;;;13.31;70.29;100033.94;5031759;28;657;-57
2021/09/21 04:52:21;;;;;;;;;;;;;;;13.49;69.90;100023.41;5031483;28;961;-57
2021/09/21 04:54:48;;;;;;;;;;;;;;;13.57;70.05;100015.75;5031699;28;1969;-57
2021/09/21 05:09:27;;;;;;;;;;;;;;;14.15;69.11;100049.84;5031822;28;613;-57
2021/09/21 05:17:03;;;;;;;;;;;;;;;14.36;69.38;100053.47;5548411;22;1683;-59
2021/09/21 05:19:31;;;;;;;;;;;;;;;14.31;69.28;100057.53;5011911;28;885;-58
2021/09/21 05:21:58;;;;;;;;;;;;;;;14.34;70.26;100061.44;5011679;28;787;-59
2021/09/21 05:24:25;;;;;;;;;;;;;;;14.32;70.02;100061.91;5011891;28;803;-58
2021/09/21 05:26:52;;;;;;;;;;;;;;;14.25;70.48;100062.00;5011749;28;819;-59
2021/09/21 05:29:20;;;;;;;;;;;;;;;14.23;71.00;100056.88;5011573;28;815;-58
2021/09/21 05:31:46;;;;;;;;;;;;;;;14.12;70.00;100069.34;5012223;28;846;-58
2021/09/21 05:34:13;;;;;;;;;;;;;;;14.12;71.54;100077.69;5011466;28;1918;-58
2021/09/21 05:36:41;;;;;;;;;;;;;;;14.21;71.96;100081.53;5012274;28;799;-59
2021/09/21 05:39:08;;;;;;;;;;;;;;;14.23;72.96;100089.44;5015685;28;834;-60
2021/09/21 05:41:35;;;;;;;;;;;;;;;14.23;73.22;100092.22;5015537;28;845;-58
2021/09/21 05:44:03;;;;;;;;;;;;;;;14.24;73.78;100096.56;5016073;28;823;-58
2021/09/21 05:46:29;;;;;;;;;;;;;;;14.23;74.01;100095.00;5015338;28;882;-58
2021/09/21 05:48:59;;;;;;;;;;;;;;;14.24;74.57;100100.13;5016000;28;748;-58
2021/09/21 05:51:27;;;;;;;;;;;;;;;14.19;73.91;100099.81;5015230;28;854;-60
2021/09/21 05:53:55;;;;;;;;;;;;;;;13.98;71.39;100098.16;5015107;28;1955;-60
2021/09/21 05:56:22;;;;;;;;;;;;;;;14.00;71.69;100117.97;5015167;28;850;-60
2021/09/21 05:58:50;;;;;;;;;;;;;;;13.94;71.33;100116.88;5015125;28;815;-60
2021/09/21 06:01:16;;;;;;;;;;;;;;;13.89;71.64;100130.00;5015205;28;807;-60
2021/09/21 06:03:43;;;;;;;;;;;;;;;13.91;72.55;100140.69;5015073;28;843;-59
2021/09/21 06:06:09;;;;;;;;;;;;;;;13.95;73.58;100138.66;5015005;28;826;-60
2021/09/21 06:08:36;;;;;;;;;;;;;;;14.00;73.90;100134.66;5014829;28;854;-60
2021/09/21 06:11:02;;;;;;;;;;;;;;;14.02;73.36;100135.78;5014876;28;823;-60
2021/09/21 06:13:28;;;;;;;;;;;;;;;14.18;73.64;100126.06;5014931;28;1890;-60
2021/09/21 06:15:55;;;;;;;;;;;;;;;14.45;73.91;100126.81;5015187;28;872;-58
2021/09/21 06:18:22;;;;;;;;;;;;;;;14.84;73.84;100127.41;5014749;28;1250;-60
2021/09/21 06:20:49;;;;;;;;;;;;;;;15.18;70.56;100132.78;5014827;28;792;-60
2021/09/21 06:23:18;;;;;;;;;;;;;;;15.18;68.69;100130.00;5014773;28;815;-60
2021/09/21 06:25:46;;;;;;;;;;;;;;;14.88;66.63;100142.84;5014627;28;835;-60
2021/09/21 06:28:14;;;;;;;;;;;;;;;14.75;68.04;100141.88;5014552;28;865;-60
2021/09/21 06:30:41;;;;;;;;;;;;;;;14.93;68.36;100140.78;5014504;28;814;-60
2021/09/21 06:33:08;;;;;;;;;;;;;;;14.85;67.67;100151.25;4996870;28;1192;-60
2021/09/21 06:35:35;;;;;;;;;;;;;;;14.67;68.09;100159.91;5014368;28;1918;-60
2021/09/21 06:38:02;;;;;;;;;;;;;;;14.61;69.56;100167.91;5014369;28;819;-61
2021/09/21 06:40:30;;;;;;;;;;;;;;;14.62;70.33;100174.28;5014314;28;819;-60
2021/09/21 06:42:57;;;;;;;;;;;;;;;14.57;70.31;100183.09;4996729;28;1166;-59
2021/09/21 06:45:25;;;;;;;;;;;;;;;14.56;70.41;100173.97;5014030;28;799;-60
2021/09/21 06:47:52;;;;;;;;;;;;;;;14.58;70.74;100185.47;5013745;28;798;-60
2021/09/21 06:50:20;;;;;;;;;;;;;;;14.60;70.81;100176.72;5013426;28;886;-60
2021/09/21 06:52:47;;;;;;;;;;;;;;;14.67;70.82;100184.94;5014174;28;894;-60
2021/09/21 06:55:13;;;;;;;;;;;;;;;14.78;71.15;100188.31;5013975;28;1953;-60
2021/09/21 06:57:41;;;;;;;;;;;;;;;14.84;70.00;100194.97;5013997;28;795;-60
2021/09/21 07:00:10;;;;;;;;;;;;;;;14.92;70.96;100192.88;5013912;28;807;-60
2021/09/21 07:02:38;;;;;;;;;;;;;;;15.06;70.31;100194.63;5013862;28;865;-59
2021/09/21 07:05:05;;;;;;;;;;;;;;;14.94;70.83;100203.59;4996329;28;906;-60
2021/09/21 07:07:32;;;;;;;;;;;;;;;14.93;71.60;100199.22;5013734;28;827;-60
2021/09/21 07:09:59;;;;;;;;;;;;;;;14.97;71.61;100216.66;4996304;28;1176;-60
2021/09/21 07:12:27;;;;;;;;;;;;;;;15.03;71.06;100210.19;5013713;28;877;-60
2021/09/21 07:14:54;;;;;;;;;;;;;;;14.93;70.27;100213.16;5013522;28;1894;-59
2021/09/21 07:17:21;;;;;;;;;;;;;;;14.78;69.81;100209.81;5013616;28;1144;-61
2021/09/21 07:19:48;;;;;;;;;;;;;;;14.63;69.71;100221.13;5013809;28;834;-60
2021/09/21 07:22:14;;;;;;;;;;;;;;;14.41;69.17;100237.31;5013476;28;843;-60
2021/09/21 07:24:41;;;;;;;;;;;;;;;14.20;69.66;100235.63;5013538;28;803;-60
2021/09/21 07:27:11;;;;;;;;;;;;;;;14.03;70.16;100247.75;5013520;28;874;-60
2021/09/21 07:29:37;;;;;;;;;;;;;;;13.99;70.29;100242.22;5013361;28;846;-60
2021/09/21 07:32:04;;;;;;;;;;;;;;;14.06;71.25;100241.34;5013520;28;854;-60
2021/09/21 07:34:31;;;;;;;;;;;;;;;14.22;72.34;100255.44;5013257;28;1910;-60
2021/09/21 07:36:58;;;;;;;;;;;;;;;14.32;72.47;100252.94;5013227;28;842;-59
2021/09/21 07:39:24;;;;;;;;;;;;;;;14.25;72.54;100259.38;5013192;28;862;-60
2021/09/21 07:41:51;;;;;;;;;;;;;;;14.28;72.85;100261.34;5013182;28;799;-60
2021/09/21 07:44:19;;;;;;;;;;;;;;;14.32;72.39;100253.75;5012959;28;806;-60
2021/09/21 07:46:46;;;;;;;;;;;;;;;14.41;72.45;100258.78;5013092;28;824;-60
2021/09/21 07:49:13;;;;;;;;;;;;;;;14.48;72.39;100270.59;5012995;28;910;-60
2021/09/21 07:51:41;;;;;;;;;;;;;;;14.62;72.16;100274.44;5012954;28;850;-60
2021/09/21 07:54:08;;;;;;;;;;;;;;;14.61;72.37;100281.97;4995312;28;1886;-60
2021/09/21 07:56:35;;;;;;;;;;;;;;;14.64;70.70;100291.50;5012913;28;905;-60
2021/09/21 07:59:03;;;;;;;;;;;;;;;14.46;71.11;100288.91;5013003;28;890;-60
2021/09/21 08:01:30;;;;;;;;;;;;;;;14.64;71.41;100289.50;5012439;28;834;-60
2021/09/21 08:03:57;;;;;;;;;;;;;;;14.96;72.41;100277.13;5012736;28;812;-60
2021/09/21 08:06:25;;;;;;;;;;;;;;;15.45;70.67;100273.94;5012702;28;882;-60
2021/09/21 08:08:52;;;;;;;;;;;;;;;15.69;67.78;100278.28;5012709;28;901;-61
2021/09/21 08:11:18;;;;;;;;;;;;;;;15.65;67.55;100271.97;5012613;28;927;-58
2021/09/21 08:13:45;;;;;;;;;;;;;;;15.95;67.27;100272.25;5012431;28;1878;-59
2021/09/21 08:16:11;;;;;;;;;;;;;;;16.55;66.34;100281.38;5012816;28;916;-60
2021/09/21 08:18:38;;;;;;;;;;;;;;;17.39;63.96;100278.25;5012352;28;1436;-60
2021/09/21 08:21:04;;;;;;;;;;;;;;;18.43;62.45;100273.41;5012446;28;879;-60
2021/09/21 08:23:31;;;;;;;;;;;;;;;19.99;59.40;100267.94;5012387;28;874;-61
2021/09/21 08:25:58;;;;;;;;;;;;;;;20.82;55.63;100256.44;5012360;28;830;-60
2021/09/21 08:28:24;;;;;;;;;;;;;;;21.01;51.49;100252.44;5012346;28;909;-61
2021/09/21 08:30:51;;;;;;;;;;;;;;;20.90;55.71;100250.06;5012575;28;917;-60
2021/09/21 08:33:19;;;;;;;;;;;;;;;20.68;55.57;100260.59;5012213;28;799;-60
2021/09/21 08:35:45;;;;;;;;;;;;;;;20.58;54.67;100263.34;5012180;28;1918;-61
2021/09/21 08:38:13;;;;;;;;;;;;;;;20.36;54.42;100271.78;5012167;28;807;-60
2021/09/21 08:43:12;;;;;;;;;;;;;;;20.53;54.78;100266.75;5009018;28;1336;-61
2021/09/21 08:48:40;;;;;;;;;;;;;;;19.59;56.12;100260.91;5267780;22;3525;-61
2021/09/21 08:51:06;;;;;;;;;;;;;;;18.52;56.93;100261.56;5012053;28;818;-61
2021/09/21 08:53:33;;;;;;;;;;;;;;;17.61;59.16;100267.31;5011951;28;1972;-61
2021/09/21 08:56:00;;;;;;;;;;;;;;;17.14;63.67;100266.47;5012213;28;885;-60
2021/09/21 08:58:27;;;;;;;;;;;;;;;17.23;63.48;100270.66;5011971;28;822;-60
2021/09/21 09:00:54;;;;;;;;;;;;;;;17.25;63.02;100268.22;5011941;28;850;-60
2021/09/21 09:03:20;;;;;;;;;;;;;;;17.23;63.88;100271.44;5011829;28;858;-61
2021/09/21 09:05:52;;;;;;;;;;;;;;;17.07;61.67;100271.44;5012106;28;874;-60
2021/09/21 09:08:32;;;;;;;;;;;;;;;16.91;64.25;100273.00;5011831;28;925;-60
2021/09/21 09:11:11;;;;;;;;;;;;;;;16.97;62.52;100278.88;5011490;28;803;-60
2021/09/21 09:13:37;;;;;;;;;;;;;;;16.73;62.75;100278.19;5011536;28;1890;-60
2021/09/21 09:16:06;;;;;;;;;;;;;;;16.39;62.65;100273.75;5011753;28;846;-60
2021/09/21 09:18:33;;;;;;;;;;;;;;;16.10;63.23;100277.13;5011574;28;878;-61
2021/09/21 09:21:00;;;;;;;;;;;;;;;15.76;63.48;100273.81;5011677;28;870;-61
2021/09/21 09:23:26;;;;;;;;;;;;;;;15.50;64.09;100281.81;4994114;28;1169;-60
2021/09/21 09:25:53;;;;;;;;;;;;;;;15.39;64.90;100279.19;5011609;28;861;-60
2021/09/21 09:28:23;;;;;;;;;;;;;;;15.73;66.26;100280.25;5011647;28;874;-60
2021/09/21 09:30:51;;;;;;;;;;;;;;;16.02;64.24;100289.63;5011576;28;838;-60
2021/09/21 09:33:19;;;;;;;;;;;;;;;16.16;65.27;100288.56;5011542;28;819;-61
2021/09/21 09:35:48;;;;;;;;;;;;;;;16.16;64.83;100301.72;5011462;28;1882;-60
2021/09/21 09:38:18;;;;;;;;;;;;;;;16.04;64.71;100295.56;5011872;28;865;-60
2021/09/21 09:40:46;;;;;;;;;;;;;;;15.93;62.15;100289.41;5011523;28;870;-61
2021/09/21 09:43:13;;;;;;;;;;;;;;;15.87;63.35;100305.84;5011493;28;815;-61
2021/09/21 09:45:42;;;;;;;;;;;;;;;16.06;64.17;100307.06;5011445;28;854;-60
2021/09/21 09:48:13;;;;;;;;;;;;;;;16.25;63.63;100301.94;5011333;28;1226;-60
2021/09/21 09:50:43;;;;;;;;;;;;;;;16.37;63.51;100304.06;5011436;28;882;-60
2021/09/21 09:53:09;;;;;;;;;;;;;;;16.03;60.40;100309.94;5011423;28;894;-61
2021/09/21 09:55:36;;;;;;;;;;;;;;;15.78;61.68;100302.81;5011285;28;1898;-60
2021/09/21 09:58:04;;;;;;;;;;;;;;;15.66;60.99;100307.00;5011333;28;823;-60
2021/09/21 10:00:30;;;;;;;;;;;;;;;15.44;61.60;100312.13;5011359;28;839;-60
2021/09/21 10:02:58;;;;;;;;;;;;;;;15.41;62.80;100310.19;5011466;28;807;-60
2021/09/21 10:05:25;;;;;;;;;;;;;;;15.47;62.74;100308.50;4993782;28;1196;-60
2021/09/21 10:07:52;;;;;;;;;;;;;;;15.60;60.77;100291.97;5011242;28;850;-60
2021/09/21 10:10:19;;;;;;;;;;;;;;;15.52;59.87;100296.09;5011217;28;997;-61
2021/09/21 10:12:47;;;;;;;;;;;;;;;15.54;60.93;100307.59;5011261;28;906;-60
2021/09/21 10:15:15;;;;;;;;;;;;;;;15.63;61.18;100304.25;5011349;28;1886;-60
2021/09/21 10:17:53;;;;;;;;;;;;;;;15.78;61.68;100305.59;5010989;28;874;-60
2021/09/21 10:20:39;;;;;;;;;;;;;;;15.68;60.46;100312.13;4993512;28;796;-60
2021/09/21 10:23:09;;;;;;;;;;;;;;;15.60;61.87;100307.91;5012497;28;882;-60
2021/09/21 10:25:38;;;;;;;;;;;;;;;15.61;61.98;100309.47;5014554;28;898;-60
2021/09/21 10:28:13;;;;;;;;;;;;;;;15.56;62.03;100294.03;5014580;28;811;-61
2021/09/21 10:30:50;;;;;;;;;;;;;;;15.46;62.49;100303.34;5014478;28;850;-60
2021/09/21 10:33:18;;;;;;;;;;;;;;;15.45;62.84;100301.78;5014433;28;815;-60
2021/09/21 10:35:49;;;;;;;;;;;;;;;15.33;61.89;100303.16;5014364;28;1885;-60
2021/09/21 10:38:19;;;;;;;;;;;;;;;15.19;63.40;100298.63;5014389;28;850;-60
2021/09/21 10:40:47;;;;;;;;;;;;;;;15.57;61.63;100306.75;4997069;28;1439;-61
2021/09/21 10:56:06;;;;;;;;;;;;;;;17.57;56.08;100319.72;4994553;28;1910;-60
2021/09/21 10:58:34;;;;;;;;;;;;;;;17.46;55.88;100311.59;4994494;28;901;-61
2021/09/21 11:01:05;;;;;;;;;;;;;;;17.80;56.28;100313.13;4976893;28;1430;-61
2021/09/21 11:03:37;;;;;;;;;;;;;;;18.74;55.64;100312.88;4994381;28;863;-61
2021/09/21 11:06:04;;;;;;;;;;;;;;;19.14;53.72;100318.06;4994232;28;862;-61
2021/09/21 11:08:32;;;;;;;;;;;;;;;19.35;52.68;100310.19;4994271;28;878;-61
2021/09/21 11:11:01;;;;;;;;;;;;;;;19.64;52.72;100303.63;4994361;28;893;-61
2021/09/21 11:13:32;;;;;;;;;;;;;;;20.01;51.07;100310.38;4994392;28;894;-61
2021/09/21 11:28:10;;;;;;;;;;;;;;;19.51;51.03;100301.66;4994356;28;668;-61
2021/09/21 11:30:37;;;;;;;;;;;;;;;18.74;51.73;100315.66;4994283;28;831;-60
2021/09/21 11:33:12;;;;;;;;;;;;;;;17.87;54.51;100308.16;4993703;28;1082;-61
2021/09/21 11:35:38;;;;;;;;;;;;;;;17.89;56.56;100299.34;4993083;28;1971;-61
2021/09/21 11:38:09;;;;;;;;;;;;;;;18.74;57.13;100292.50;4993683;28;803;-61
2021/09/21 11:40:37;;;;;;;;;;;;;;;19.63;52.95;100294.44;4993654;28;822;-61
2021/09/21 11:43:04;;;;;;;;;;;;;;;19.99;52.97;100276.38;4976141;28;1244;-61
2021/09/21 11:45:31;;;;;;;;;;;;;;;20.52;51.48;100267.19;4976004;28;1218;-61
2021/09/21 11:47:58;;;;;;;;;;;;;;;20.52;49.29;100264.38;4993810;28;1070;-61
2021/09/21 11:50:32;;;;;;;;;;;;;;;20.54;49.62;100261.91;4993473;28;921;-61
2021/09/21 11:52:59;;;;;;;;;;;;;;;20.73;47.63;100257.97;4994487;28;1286;-61
2021/09/21 11:55:28;;;;;;;;;;;;;;;20.53;46.15;100249.91;5012939;28;1914;-61
2021/09/21 11:57:55;;;;;;;;;;;;;;;20.15;47.05;100245.31;5013324;28;815;-60
2021/09/21 12:00:29;;;;;;;;;;;;;;;20.24;49.07;100241.78;5012967;28;850;-60
2021/09/21 12:02:58;;;;;;;;;;;;;;;20.75;47.81;100237.84;5012902;28;847;-61
2021/09/21 12:05:25;;;;;;;;;;;;;;;20.60;46.25;100241.22;5012793;28;819;-58
2021/09/21 12:07:52;;;;;;;;;;;;;;;20.26;46.15;100242.09;5012727;28;878;-60
2021/09/21 12:10:19;;;;;;;;;;;;;;;20.11;48.52;100238.28;5012741;28;787;-61
2021/09/21 12:12:46;;;;;;;;;;;;;;;20.36;47.12;100232.50;5012669;28;831;-61
2021/09/21 12:15:13;;;;;;;;;;;;;;;20.14;47.21;100224.13;5012400;28;1922;-61
2021/09/21 12:17:41;;;;;;;;;;;;;;;19.89;48.34;100219.44;5012598;28;803;-60
2021/09/21 12:20:09;;;;;;;;;;;;;;;19.92;49.18;100212.13;5012540;28;822;-59
2021/09/21 12:22:35;;;;;;;;;;;;;;;19.94;47.41;100216.03;5012488;28;795;-60
2021/09/21 12:25:09;;;;;;;;;;;;;;;19.79;48.30;100212.97;5012456;28;819;-61
2021/09/21 12:27:37;;;;;;;;;;;;;;;19.71;48.72;100210.88;5012509;28;815;-60
2021/09/21 12:30:08;;;;;;;;;;;;;;;19.52;47.61;100202.31;4994798;28;1221;-60
2021/09/21 12:32:35;;;;;;;;;;;;;;;19.40;48.92;100207.97;5012387;28;855;-60
2021/09/21 12:35:07;;;;;;;;;;;;;;;19.49;49.11;100203.19;5012252;28;1957;-60
2021/09/21 12:37:42;;;;;;;;;;;;;;;19.77;49.06;100214.66;5012306;28;819;-60
2021/09/21 12:43:32;;;;;;;;;;;;;;;20.09;48.86;100199.44;5012234;28;617;-61
2021/09/21 12:46:03;;;;;;;;;;;;;;;19.95;47.85;100211.19;5011568;28;866;-60
2021/09/21 12:48:37;;;;;;;;;;;;;;;19.52;48.46;100196.69;5012231;28;928;-60
2021/09/21 12:51:04;;;;;;;;;;;;;;;19.29;49.25;100195.09;5012039;28;874;-61
2021/09/21 12:53:30;;;;;;;;;;;;;;;19.37;50.30;100192.81;5011797;28;1181;-61
2021/09/21 12:56:02;;;;;;;;;;;;;;;19.24;50.25;100203.28;5011921;28;1973;-61
2021/09/21 12:58:35;;;;;;;;;;;;;;;19.25;51.16;100199.25;5011862;28;838;-60
2021/09/21 13:01:19;;;;;;;;;;;;;;;19.77;50.48;100212.63;4994317;28;878;-60
2021/09/21 13:03:47;;;;;;;;;;;;;;;19.84;49.44;100194.75;5011929;28;863;-60
2021/09/21 13:06:14;;;;;;;;;;;;;;;19.78;49.55;100199.41;4994239;28;1220;-60
2021/09/21 13:08:42;;;;;;;;;;;;;;;19.90;50.30;100201.34;5011894;28;929;-60
2021/09/21 13:11:09;;;;;;;;;;;;;;;19.52;49.84;100199.50;4994149;28;1324;-60
2021/09/21 13:13:36;;;;;;;;;;;;;;;19.40;50.10;100191.91;5011847;28;882;-60
2021/09/21 13:16:04;;;;;;;;;;;;;;;19.41;50.39;100198.31;5011866;28;1935;-61
2021/09/21 13:18:30;;;;;;;;;;;;;;;19.36;51.08;100191.25;5011698;28;878;-61
2021/09/21 13:20:58;;;;;;;;;;;;;;;19.62;50.34;100189.13;5012023;28;819;-61
2021/09/21 13:23:23;;;;;;;;;;;;;;;19.30;50.52;100193.84;4994101;28;898;-60
2021/09/21 13:25:51;;;;;;;;;;;;;;;18.87;52.86;100200.13;5011663;28;1002;-61
2021/09/21 13:28:18;;;;;;;;;;;;;;;18.41;52.82;100185.53;5011710;28;799;-61
2021/09/21 13:30:49;;;;;;;;;;;;;;;18.36;53.17;100179.28;5011656;28;822;-60
2021/09/21 13:33:17;;;;;;;;;;;;;;;18.04;53.42;100177.44;5011616;28;862;-61
2021/09/21 13:35:44;;;;;;;;;;;;;;;18.11;53.93;100191.22;5011557;28;1910;-61
2021/09/21 13:38:11;;;;;;;;;;;;;;;18.43;53.31;100189.44;4993891;28;1245;-61
2021/09/21 13:40:39;;;;;;;;;;;;;;;18.60;53.31;100180.94;5011621;28;816;-61
2021/09/21 13:43:06;;;;;;;;;;;;;;;18.23;53.77;100180.50;4993759;28;1217;-60
2021/09/21 13:45:34;;;;;;;;;;;;;;;17.67;54.15;100176.13;5011734;28;817;-60
2021/09/21 13:48:00;;;;;;;;;;;;;;;17.36;54.91;100182.13;5011765;28;1015;-60
2021/09/21 13:50:28;;;;;;;;;;;;;;;17.13;55.23;100181.13;5011441;28;784;-60
2021/09/21 13:52:55;;;;;;;;;;;;;;;16.89;55.92;100186.09;5011300;28;1048;-60
2021/09/21 13:55:21;;;;;;;;;;;;;;;16.79;57.32;100184.34;4991892;28;1910;-61
2021/09/21 13:57:48;;;;;;;;;;;;;;;16.62;56.99;100179.97;4992625;28;803;-60
2021/09/21 14:00:18;;;;;;;;;;;;;;;16.59;57.60;100187.19;4995526;28;807;-60
2021/09/21 14:02:45;;;;;;;;;;;;;;;16.70;57.53;100186.94;4995495;28;842;-60
2021/09/21 14:05:12;;;;;;;;;;;;;;;16.74;57.20;100179.28;4995459;28;784;-60
2021/09/21 14:07:40;;;;;;;;;;;;;;;16.77;57.34;100180.41;4995385;28;831;-61
2021/09/21 14:10:07;;;;;;;;;;;;;;;16.80;57.24;100182.34;4995361;28;870;-60
2021/09/21 14:12:34;;;;;;;;;;;;;;;16.81;57.36;100184.69;4995128;28;807;-60
2021/09/21 14:15:04;;;;;;;;;;;;;;;16.67;57.51;100182.25;4995558;28;1894;-60
2021/09/21 14:17:34;;;;;;;;;;;;;;;16.54;57.87;100182.16;4995205;28;889;-60
2021/09/21 14:20:03;;;;;;;;;;;;;;;16.69;58.44;100177.03;4995390;28;1180;-61
2021/09/21 14:22:30;;;;;;;;;;;;;;;17.20;57.24;100187.72;4995048;28;824;-60
2021/09/21 14:24:56;;;;;;;;;;;;;;;17.49;55.98;100184.97;4995117;28;863;-61